Chippewa Valley Regional Airport Eau Claire US
ICAO: KEAU
IATA: EAU
Category: Medium
Scheduled Services: Yes

Elevation: 913 ft
TransAlt. 18000 ft.

Airport Communications:
MINNEAPOLIS APP/DEP:125.3
ASOS:119.675
GREEN BAY RDO:122.65
CTAF/UNICOM:123

KEAU Zoom In..

If you have problems with the map follow the link
https://www.worldairports.se/pages/airport.php?
ICAO=KEAU

Runways:

(A) RW 04 length 8101 ft width 150 ft
---- / hdg 44

(B) RW 14 length 5000 ft width 100 ft
---- / hdg 138

(C) RW 22 length 8101 ft width 150 ft
ILS 109.50 / hdg 224

(D) RW 32 length 5000 ft width 100 ft
---- / hdg 318

Location; KEAU
Day. 18 / Time. 20.56 Zulu
* Altimeter: 30.23
* Temperature: -11° c. -12.2°f.
* Wind from: 050° Speed 07 kn.
Dewpoint: -18° c.
Visibility: 10 Statute Miles.
Clouds: Overcast 7500 ft.

KEAU 182056Z 05007KT 10SM OVC075 M11/M18 A3023 RMK AO2 SLP258 T11111178 55014


Wind From 050°
Speed 07 kn.

 
 
jpsmedia.com for Web Design worldairports.se 2019   terms of use